sensor_id;sensor_type;location;lat;lon;timestamp;pressure;altitude;pressure_sealevel;temperature;humidity
25232;BME280;13176;51.140;6.290;2024-02-23T00:02:24;98282.81;;;8.21;84.74
25232;BME280;13176;51.140;6.290;2024-02-23T00:04:51;98268.94;;;8.22;85.07
25232;BME280;13176;51.140;6.290;2024-02-23T00:07:18;98221.56;;;7.97;84.45
25232;BME280;13176;51.140;6.290;2024-02-23T00:09:45;98178.75;;;7.68;84.47
25232;BME280;13176;51.140;6.290;2024-02-23T00:12:11;98227.28;;;7.86;85.41
25232;BME280;13176;51.140;6.290;2024-02-23T00:14:37;98212.47;;;7.88;84.17
25232;BME280;13176;51.140;6.290;2024-02-23T00:17:04;98299.75;;;8.68;83.55
25232;BME280;13176;51.140;6.290;2024-02-23T00:19:31;98207.47;;;7.83;84.24
25232;BME280;13176;51.140;6.290;2024-02-23T00:21:58;98231.03;;;8.18;83.42
25232;BME280;13176;51.140;6.290;2024-02-23T00:24:26;98264.09;;;8.13;84.71
25232;BME280;13176;51.140;6.290;2024-02-23T00:26:52;98175.50;;;7.83;83.21
25232;BME280;13176;51.140;6.290;2024-02-23T00:29:19;98269.66;;;8.44;83.19
25232;BME280;13176;51.140;6.290;2024-02-23T00:31:46;98351.91;;;9.02;82.44
25232;BME280;13176;51.140;6.290;2024-02-23T00:34:12;98286.03;;;8.65;82.22
25232;BME280;13176;51.140;6.290;2024-02-23T00:36:40;98345.72;;;9.23;80.94
25232;BME280;13176;51.140;6.290;2024-02-23T00:39:08;98351.31;;;8.77;81.53
25232;BME280;13176;51.140;6.290;2024-02-23T00:41:34;98291.47;;;8.60;80.92
25232;BME280;13176;51.140;6.290;2024-02-23T00:44:02;98247.81;;;7.90;82.29
25232;BME280;13176;51.140;6.290;2024-02-23T00:46:29;98289.91;;;8.56;81.22
25232;BME280;13176;51.140;6.290;2024-02-23T00:48:55;98346.41;;;8.71;82.41
25232;BME280;13176;51.140;6.290;2024-02-23T00:51:22;98286.63;;;8.33;82.31
25232;BME280;13176;51.140;6.290;2024-02-23T00:53:48;98348.88;;;8.54;83.09
25232;BME280;13176;51.140;6.290;2024-02-23T00:56:15;98347.97;;;8.55;82.21
25232;BME280;13176;51.140;6.290;2024-02-23T00:58:41;98375.16;;;8.87;81.41
25232;BME280;13176;51.140;6.290;2024-02-23T01:01:08;98269.97;;;7.98;81.46
25232;BME280;13176;51.140;6.290;2024-02-23T01:03:34;98337.53;;;8.75;80.67
25232;BME280;13176;51.140;6.290;2024-02-23T01:06:01;98368.16;;;8.69;80.12
25232;BME280;13176;51.140;6.290;2024-02-23T01:08:28;98363.09;;;8.66;80.92
25232;BME280;13176;51.140;6.290;2024-02-23T01:10:54;98367.47;;;8.65;80.72
25232;BME280;13176;51.140;6.290;2024-02-23T01:13:21;98270.19;;;8.12;80.46
25232;BME280;13176;51.140;6.290;2024-02-23T01:15:47;98303.47;;;8.24;80.39
25232;BME280;13176;51.140;6.290;2024-02-23T01:18:14;98342.00;;;8.53;80.50
25232;BME280;13176;51.140;6.290;2024-02-23T01:20:40;98370.75;;;8.30;82.10
25232;BME280;13176;51.140;6.290;2024-02-23T01:23:09;98318.63;;;8.53;80.28
25232;BME280;13176;51.140;6.290;2024-02-23T01:25:36;98212.22;;;7.54;81.15
25232;BME280;13176;51.140;6.290;2024-02-23T01:28:04;98391.66;;;8.06;83.68
25232;BME280;13176;51.140;6.290;2024-02-23T01:30:30;98335.25;;;8.09;83.22
25232;BME280;13176;51.140;6.290;2024-02-23T01:32:57;98327.28;;;7.73;83.75
25232;BME280;13176;51.140;6.290;2024-02-23T01:35:23;98439.44;;;8.83;82.67
25232;BME280;13176;51.140;6.290;2024-02-23T01:37:50;98329.38;;;7.85;82.65
25232;BME280;13176;51.140;6.290;2024-02-23T01:40:17;98339.00;;;8.02;82.18
25232;BME280;13176;51.140;6.290;2024-02-23T01:42:43;98328.06;;;7.75;82.70
25232;BME280;13176;51.140;6.290;2024-02-23T01:45:10;98333.81;;;8.02;81.26
25232;BME280;13176;51.140;6.290;2024-02-23T01:47:36;98293.47;;;7.95;81.75
25232;BME280;13176;51.140;6.290;2024-02-23T01:50:03;98354.00;;;7.96;82.93
25232;BME280;13176;51.140;6.290;2024-02-23T01:52:30;98298.50;;;7.79;81.70
25232;BME280;13176;51.140;6.290;2024-02-23T01:54:56;98406.66;;;7.99;82.93
25232;BME280;13176;51.140;6.290;2024-02-23T01:57:23;98304.97;;;7.69;83.26
25232;BME280;13176;51.140;6.290;2024-02-23T02:00:13;98343.81;;;7.91;82.55
25232;BME280;13176;51.140;6.290;2024-02-23T02:02:41;98351.75;;;7.87;82.15
25232;BME280;13176;51.140;6.290;2024-02-23T02:05:09;98273.94;;;7.46;81.64
25232;BME280;13176;51.140;6.290;2024-02-23T02:07:35;98337.84;;;8.09;80.53
25232;BME280;13176;51.140;6.290;2024-02-23T02:10:02;98353.91;;;7.78;82.36
25232;BME280;13176;51.140;6.290;2024-02-23T02:12:30;98355.47;;;7.39;83.02
25232;BME280;13176;51.140;6.290;2024-02-23T02:14:56;98467.41;;;8.17;81.70
25232;BME280;13176;51.140;6.290;2024-02-23T02:17:23;98350.00;;;7.25;81.91
25232;BME280;13176;51.140;6.290;2024-02-23T02:19:50;98384.50;;;7.70;81.95
25232;BME280;13176;51.140;6.290;2024-02-23T02:22:16;98345.94;;;7.82;80.92
25232;BME280;13176;51.140;6.290;2024-02-23T02:24:43;98300.75;;;7.25;81.89
25232;BME280;13176;51.140;6.290;2024-02-23T02:27:12;98385.59;;;7.86;81.30
25232;BME280;13176;51.140;6.290;2024-02-23T02:29:39;98299.41;;;7.15;81.91
25232;BME280;13176;51.140;6.290;2024-02-23T02:32:05;98374.38;;;8.26;79.67
25232;BME280;13176;51.140;6.290;2024-02-23T02:34:32;98300.75;;;7.25;81.58
25232;BME280;13176;51.140;6.290;2024-02-23T02:37:00;98328.19;;;7.72;81.51
25232;BME280;13176;51.140;6.290;2024-02-23T02:39:27;98324.31;;;7.62;82.08
25232;BME280;13176;51.140;6.290;2024-02-23T02:41:53;98411.84;;;7.99;81.85
25232;BME280;13176;51.140;6.290;2024-02-23T02:44:20;98342.06;;;7.71;81.36
25232;BME280;13176;51.140;6.290;2024-02-23T02:46:46;98360.75;;;7.59;80.92
25232;BME280;13176;51.140;6.290;2024-02-23T02:49:13;98389.28;;;7.59;82.31
25232;BME280;13176;51.140;6.290;2024-02-23T02:51:39;98378.16;;;7.77;81.80
25232;BME280;13176;51.140;6.290;2024-02-23T02:54:06;98353.03;;;7.98;81.03
25232;BME280;13176;51.140;6.290;2024-02-23T02:56:32;98449.31;;;8.55;81.76
25232;BME280;13176;51.140;6.290;2024-02-23T02:58:59;98418.94;;;8.37;79.14
25232;BME280;13176;51.140;6.290;2024-02-23T03:01:25;98410.06;;;8.41;79.10
25232;BME280;13176;51.140;6.290;2024-02-23T03:03:52;98491.81;;;8.74;79.55
25232;BME280;13176;51.140;6.290;2024-02-23T03:06:19;98394.91;;;8.32;78.51
25232;BME280;13176;51.140;6.290;2024-02-23T03:08:45;98331.56;;;7.74;78.94
25232;BME280;13176;51.140;6.290;2024-02-23T03:11:12;98487.84;;;8.46;79.69
25232;BME280;13176;51.140;6.290;2024-02-23T03:13:38;98374.53;;;7.81;79.52
25232;BME280;13176;51.140;6.290;2024-02-23T03:16:05;98422.03;;;8.45;78.90
25232;BME280;13176;51.140;6.290;2024-02-23T03:18:31;98386.56;;;8.24;78.01
25232;BME280;13176;51.140;6.290;2024-02-23T03:20:57;98320.16;;;7.15;80.52
25232;BME280;13176;51.140;6.290;2024-02-23T03:23:24;98451.25;;;8.09;80.37
25232;BME280;13176;51.140;6.290;2024-02-23T03:25:50;98368.38;;;8.44;78.38
25232;BME280;13176;51.140;6.290;2024-02-23T03:28:17;98470.91;;;8.57;78.99
25232;BME280;13176;51.140;6.290;2024-02-23T03:30:43;98415.13;;;8.44;77.65
25232;BME280;13176;51.140;6.290;2024-02-23T03:33:10;98426.72;;;8.57;77.57
25232;BME280;13176;51.140;6.290;2024-02-23T03:35:36;98417.88;;;8.41;77.05
25232;BME280;13176;51.140;6.290;2024-02-23T03:38:03;98485.31;;;8.64;77.74
25232;BME280;13176;51.140;6.290;2024-02-23T03:40:30;98386.63;;;8.23;77.56
25232;BME280;13176;51.140;6.290;2024-02-23T03:42:56;98395.03;;;8.29;77.26
25232;BME280;13176;51.140;6.290;2024-02-23T03:45:22;98321.84;;;7.79;78.49
25232;BME280;13176;51.140;6.290;2024-02-23T03:47:49;98420.34;;;8.64;78.14
25232;BME280;13176;51.140;6.290;2024-02-23T03:50:16;98434.56;;;8.14;77.76
25232;BME280;13176;51.140;6.290;2024-02-23T03:52:42;98400.91;;;8.33;76.63
25232;BME280;13176;51.140;6.290;2024-02-23T03:55:08;98404.25;;;8.56;76.68
25232;BME280;13176;51.140;6.290;2024-02-23T03:57:35;98513.00;;;8.65;77.08
25232;BME280;13176;51.140;6.290;2024-02-23T04:00:02;98401.72;;;8.13;77.70
25232;BME280;13176;51.140;6.290;2024-02-23T04:02:29;98385.00;;;8.20;76.45
25232;BME280;13176;51.140;6.290;2024-02-23T04:04:56;98412.66;;;8.41;76.54
25232;BME280;13176;51.140;6.290;2024-02-23T04:07:22;98401.91;;;8.30;76.44
25232;BME280;13176;51.140;6.290;2024-02-23T04:09:49;98409.16;;;8.22;77.00
25232;BME280;13176;51.140;6.290;2024-02-23T04:12:21;98515.59;;;8.85;76.93
25232;BME280;13176;51.140;6.290;2024-02-23T04:14:48;98459.78;;;8.54;77.69
25232;BME280;13176;51.140;6.290;2024-02-23T04:17:15;98399.19;;;8.33;76.26
25232;BME280;13176;51.140;6.290;2024-02-23T04:19:41;98364.13;;;8.02;75.96
25232;BME280;13176;51.140;6.290;2024-02-23T04:22:08;98506.97;;;9.04;77.42
25232;BME280;13176;51.140;6.290;2024-02-23T04:24:38;98431.53;;;8.66;75.98
25232;BME280;13176;51.140;6.290;2024-02-23T04:27:08;98519.44;;;8.97;76.03
25232;BME280;13176;51.140;6.290;2024-02-23T04:29:35;98494.84;;;9.03;75.54
25232;BME280;13176;51.140;6.290;2024-02-23T04:32:02;98514.03;;;9.21;75.54
25232;BME280;13176;51.140;6.290;2024-02-23T04:34:28;98485.44;;;8.81;76.29
25232;BME280;13176;51.140;6.290;2024-02-23T04:36:55;98499.50;;;8.97;75.89
25232;BME280;13176;51.140;6.290;2024-02-23T04:39:22;98420.66;;;8.57;76.65
25232;BME280;13176;51.140;6.290;2024-02-23T04:41:48;98462.31;;;8.95;75.95
25232;BME280;13176;51.140;6.290;2024-02-23T04:44:15;98526.88;;;9.44;75.95
25232;BME280;13176;51.140;6.290;2024-02-23T04:46:41;98418.41;;;8.49;75.10
25232;BME280;13176;51.140;6.290;2024-02-23T04:49:08;98483.94;;;9.15;75.07
25232;BME280;13176;51.140;6.290;2024-02-23T04:51:34;98385.53;;;8.48;74.84
25232;BME280;13176;51.140;6.290;2024-02-23T04:54:01;98450.09;;;8.77;74.82
25232;BME280;13176;51.140;6.290;2024-02-23T04:56:27;98473.13;;;8.66;74.97
25232;BME280;13176;51.140;6.290;2024-02-23T04:58:54;98506.88;;;9.26;74.78
25232;BME280;13176;51.140;6.290;2024-02-23T05:01:20;98470.94;;;8.96;76.24
25232;BME280;13176;51.140;6.290;2024-02-23T05:03:47;98496.03;;;8.77;75.35
25232;BME280;13176;51.140;6.290;2024-02-23T05:06:13;98531.72;;;8.73;76.50
25232;BME280;13176;51.140;6.290;2024-02-23T05:08:40;98525.94;;;9.06;77.01
25232;BME280;13176;51.140;6.290;2024-02-23T05:11:07;98401.13;;;8.48;75.81
25232;BME280;13176;51.140;6.290;2024-02-23T05:13:34;98416.63;;;8.70;74.56
25232;BME280;13176;51.140;6.290;2024-02-23T05:16:02;98410.25;;;8.57;74.99
25232;BME280;13176;51.140;6.290;2024-02-23T05:18:30;98400.81;;;8.14;75.86
25232;BME280;13176;51.140;6.290;2024-02-23T05:20:56;98371.72;;;8.06;75.55
25232;BME280;13176;51.140;6.290;2024-02-23T05:23:23;98434.63;;;8.74;75.86
25232;BME280;13176;51.140;6.290;2024-02-23T05:25:49;98467.59;;;9.12;74.87
25232;BME280;13176;51.140;6.290;2024-02-23T05:28:16;98486.75;;;9.29;74.04
25232;BME280;13176;51.140;6.290;2024-02-23T05:30:42;98401.03;;;8.70;75.26
25232;BME280;13176;51.140;6.290;2024-02-23T05:33:09;98370.63;;;8.33;74.82
25232;BME280;13176;51.140;6.290;2024-02-23T05:35:35;98485.59;;;8.98;75.21
25232;BME280;13176;51.140;6.290;2024-02-23T05:38:02;98437.94;;;9.16;73.33
25232;BME280;13176;51.140;6.290;2024-02-23T05:40:29;98404.84;;;8.81;73.78
25232;BME280;13176;51.140;6.290;2024-02-23T05:42:55;98380.53;;;8.24;73.46
25232;BME280;13176;51.140;6.290;2024-02-23T05:45:22;98405.94;;;8.57;73.55
25232;BME280;13176;51.140;6.290;2024-02-23T05:47:48;98411.22;;;8.94;73.05
25232;BME280;13176;51.140;6.290;2024-02-23T05:50:15;98506.59;;;9.32;74.56
25232;BME280;13176;51.140;6.290;2024-02-23T05:52:42;98477.31;;;9.08;73.57
25232;BME280;13176;51.140;6.290;2024-02-23T05:55:09;98473.31;;;9.20;73.00
25232;BME280;13176;51.140;6.290;2024-02-23T05:57:35;98420.50;;;9.00;72.75
25232;BME280;13176;51.140;6.290;2024-02-23T06:00:03;98484.75;;;9.16;73.47
25232;BME280;13176;51.140;6.290;2024-02-23T06:02:30;98481.50;;;9.11;73.81
25232;BME280;13176;51.140;6.290;2024-02-23T06:04:56;98482.50;;;9.28;72.62
25232;BME280;13176;51.140;6.290;2024-02-23T06:07:23;98480.25;;;9.01;73.14
25232;BME280;13176;51.140;6.290;2024-02-23T06:09:55;98494.22;;;9.18;73.18
25232;BME280;13176;51.140;6.290;2024-02-23T06:12:22;98486.72;;;9.49;72.99
25232;BME280;13176;51.140;6.290;2024-02-23T06:14:50;98491.13;;;9.29;73.18
25232;BME280;13176;51.140;6.290;2024-02-23T06:17:17;98488.59;;;9.27;73.78
25232;BME280;13176;51.140;6.290;2024-02-23T06:19:44;98489.19;;;9.14;73.35
25232;BME280;13176;51.140;6.290;2024-02-23T06:22:11;98492.59;;;8.96;73.83
25232;BME280;13176;51.140;6.290;2024-02-23T06:24:38;98473.09;;;9.06;74.20
25232;BME280;13176;51.140;6.290;2024-02-23T06:27:05;98439.28;;;8.86;73.68
25232;BME280;13176;51.140;6.290;2024-02-23T06:29:31;98456.84;;;9.01;73.31
25232;BME280;13176;51.140;6.290;2024-02-23T06:31:58;98399.56;;;9.02;73.55
25232;BME280;13176;51.140;6.290;2024-02-23T06:34:24;98347.06;;;8.56;73.48
25232;BME280;13176;51.140;6.290;2024-02-23T06:36:51;98476.28;;;9.31;72.70
25232;BME280;13176;51.140;6.290;2024-02-23T06:39:18;98469.91;;;9.38;73.40
25232;BME280;13176;51.140;6.290;2024-02-23T06:41:46;98405.03;;;9.15;73.38
25232;BME280;13176;51.140;6.290;2024-02-23T06:44:12;98445.69;;;9.17;71.90
25232;BME280;13176;51.140;6.290;2024-02-23T06:46:39;98417.00;;;9.19;72.39
25232;BME280;13176;51.140;6.290;2024-02-23T06:49:07;98438.31;;;9.27;72.01
25232;BME280;13176;51.140;6.290;2024-02-23T06:51:33;98484.53;;;9.59;72.67
25232;BME280;13176;51.140;6.290;2024-02-23T06:53:59;98427.53;;;9.16;72.37
25232;BME280;13176;51.140;6.290;2024-02-23T06:56:26;98486.38;;;9.57;71.76
25232;BME280;13176;51.140;6.290;2024-02-23T06:58:52;98493.97;;;9.43;71.90
25232;BME280;13176;51.140;6.290;2024-02-23T07:01:20;98471.31;;;9.45;72.18
25232;BME280;13176;51.140;6.290;2024-02-23T07:03:46;98435.78;;;8.87;72.45
25232;BME280;13176;51.140;6.290;2024-02-23T07:06:15;98493.91;;;9.06;72.27
25232;BME280;13176;51.140;6.290;2024-02-23T07:08:44;98468.28;;;8.97;72.64
25232;BME280;13176;51.140;6.290;2024-02-23T07:11:11;98482.94;;;9.18;72.42
25232;BME280;13176;51.140;6.290;2024-02-23T07:13:38;98484.22;;;9.28;72.17
25232;BME280;13176;51.140;6.290;2024-02-23T07:16:06;98471.88;;;9.33;71.44
25232;BME280;13176;51.140;6.290;2024-02-23T07:18:32;98362.31;;;8.84;71.40
25232;BME280;13176;51.140;6.290;2024-02-23T07:20:59;98433.03;;;9.10;73.31
25232;BME280;13176;51.140;6.290;2024-02-23T07:23:25;98417.06;;;8.99;71.84
25232;BME280;13176;51.140;6.290;2024-02-23T07:25:52;98485.41;;;9.78;71.75
25232;BME280;13176;51.140;6.290;2024-02-23T07:28:19;98498.69;;;9.72;71.94
25232;BME280;13176;51.140;6.290;2024-02-23T07:30:46;98514.22;;;9.55;72.22
25232;BME280;13176;51.140;6.290;2024-02-23T07:33:13;98512.00;;;9.66;71.47
25232;BME280;13176;51.140;6.290;2024-02-23T07:35:39;98496.50;;;9.63;71.83
25232;BME280;13176;51.140;6.290;2024-02-23T07:38:06;98387.66;;;8.79;71.80
25232;BME280;13176;51.140;6.290;2024-02-23T07:40:32;98514.50;;;9.67;71.66
25232;BME280;13176;51.140;6.290;2024-02-23T07:42:58;98517.41;;;9.43;73.16
25232;BME280;13176;51.140;6.290;2024-02-23T07:45:25;98530.31;;;9.83;72.66
25232;BME280;13176;51.140;6.290;2024-02-23T07:47:52;98516.91;;;9.53;73.07
25232;BME280;13176;51.140;6.290;2024-02-23T07:50:19;98525.38;;;9.77;72.21
25232;BME280;13176;51.140;6.290;2024-02-23T07:52:45;98404.13;;;8.59;74.81
25232;BME280;13176;51.140;6.290;2024-02-23T07:55:12;98494.53;;;9.68;73.14
25232;BME280;13176;51.140;6.290;2024-02-23T07:57:46;98528.16;;;9.54;73.24
25232;BME280;13176;51.140;6.290;2024-02-23T08:00:12;98465.09;;;9.29;73.06
25232;BME280;13176;51.140;6.290;2024-02-23T08:02:39;98482.94;;;9.18;74.32
25232;BME280;13176;51.140;6.290;2024-02-23T08:05:07;98480.97;;;9.23;73.51
25232;BME280;13176;51.140;6.290;2024-02-23T08:07:33;98467.94;;;9.43;72.46
25232;BME280;13176;51.140;6.290;2024-02-23T08:10:00;98526.25;;;9.39;74.95
25232;BME280;13176;51.140;6.290;2024-02-23T08:12:26;98414.06;;;9.08;72.59
25232;BME280;13176;51.140;6.290;2024-02-23T08:14:53;98372.94;;;8.59;74.39
25232;BME280;13176;51.140;6.290;2024-02-23T08:17:21;98415.69;;;8.72;74.56
25232;BME280;13176;51.140;6.290;2024-02-23T08:19:47;98502.75;;;9.02;73.98
25232;BME280;13176;51.140;6.290;2024-02-23T08:22:14;98383.41;;;8.38;74.71
25232;BME280;13176;51.140;6.290;2024-02-23T08:24:40;98514.94;;;9.58;73.38
25232;BME280;13176;51.140;6.290;2024-02-23T08:27:07;98511.38;;;9.22;74.19
25232;BME280;13176;51.140;6.290;2024-02-23T08:29:33;98513.16;;;9.59;73.43
25232;BME280;13176;51.140;6.290;2024-02-23T08:32:00;98533.03;;;9.61;72.65
25232;BME280;13176;51.140;6.290;2024-02-23T08:34:26;98493.66;;;9.30;74.31
25232;BME280;13176;51.140;6.290;2024-02-23T08:36:53;98475.78;;;9.23;74.28
25232;BME280;13176;51.140;6.290;2024-02-23T08:39:19;98518.47;;;9.76;73.45
25232;BME280;13176;51.140;6.290;2024-02-23T08:41:48;98536.09;;;10.08;73.33
25232;BME280;13176;51.140;6.290;2024-02-23T08:44:15;98525.53;;;10.11;71.62
25232;BME280;13176;51.140;6.290;2024-02-23T08:46:41;98477.50;;;9.79;71.68
25232;BME280;13176;51.140;6.290;2024-02-23T08:49:07;98518.03;;;10.21;71.59
25232;BME280;13176;51.140;6.290;2024-02-23T08:51:34;98473.44;;;9.74;71.89
25232;BME280;13176;51.140;6.290;2024-02-23T08:54:00;98460.47;;;9.72;71.13
25232;BME280;13176;51.140;6.290;2024-02-23T08:56:36;98507.78;;;10.19;70.62
25232;BME280;13176;51.140;6.290;2024-02-23T08:59:10;98488.78;;;9.80;71.29
25232;BME280;13176;51.140;6.290;2024-02-23T09:01:36;98399.97;;;9.49;71.18
25232;BME280;13176;51.140;6.290;2024-02-23T09:04:03;98401.50;;;9.71;70.60
25232;BME280;13176;51.140;6.290;2024-02-23T09:06:29;98530.59;;;10.14;70.08
25232;BME280;13176;51.140;6.290;2024-02-23T09:08:58;98504.03;;;10.24;68.96
25232;BME280;13176;51.140;6.290;2024-02-23T09:11:25;98504.19;;;10.38;69.11
25232;BME280;13176;51.140;6.290;2024-02-23T09:13:51;98542.31;;;10.40;68.37
25232;BME280;13176;51.140;6.290;2024-02-23T09:16:18;98401.41;;;9.91;68.97
25232;BME280;13176;51.140;6.290;2024-02-23T09:18:45;98537.41;;;10.16;69.62
25232;BME280;13176;51.140;6.290;2024-02-23T09:21:11;98495.53;;;10.02;70.05
25232;BME280;13176;51.140;6.290;2024-02-23T09:23:38;98537.75;;;10.27;69.74
25232;BME280;13176;51.140;6.290;2024-02-23T09:26:09;98543.56;;;10.67;68.77
25232;BME280;13176;51.140;6.290;2024-02-23T09:28:37;98461.31;;;10.10;69.84
25232;BME280;13176;51.140;6.290;2024-02-23T09:31:04;98440.91;;;10.01;69.07
25232;BME280;13176;51.140;6.290;2024-02-23T09:33:31;98416.56;;;10.02;68.68
25232;BME280;13176;51.140;6.290;2024-02-23T09:35:57;98520.09;;;10.50;68.39
25232;BME280;13176;51.140;6.290;2024-02-23T09:38:25;98512.09;;;10.36;68.51
25232;BME280;13176;51.140;6.290;2024-02-23T09:40:51;98534.63;;;10.37;69.83
25232;BME280;13176;51.140;6.290;2024-02-23T09:43:21;98457.22;;;10.04;69.67
25232;BME280;13176;51.140;6.290;2024-02-23T09:45:51;98505.81;;;10.57;69.39
25232;BME280;13176;51.140;6.290;2024-02-23T09:48:22;98519.78;;;10.56;67.24
25232;BME280;13176;51.140;6.290;2024-02-23T09:50:52;98528.78;;;10.68;67.82
25232;BME280;13176;51.140;6.290;2024-02-23T09:53:19;98473.03;;;10.53;67.81
25232;BME280;13176;51.140;6.290;2024-02-23T09:55:50;98535.16;;;10.96;66.96
25232;BME280;13176;51.140;6.290;2024-02-23T09:58:17;98369.97;;;9.42;68.33
25232;BME280;13176;51.140;6.290;2024-02-23T10:00:46;98548.44;;;10.39;68.31
25232;BME280;13176;51.140;6.290;2024-02-23T10:03:12;98484.13;;;10.05;67.82
25232;BME280;13176;51.140;6.290;2024-02-23T10:05:39;98567.31;;;10.44;68.03
25232;BME280;13176;51.140;6.290;2024-02-23T10:08:08;98545.41;;;10.65;67.56
25232;BME280;13176;51.140;6.290;2024-02-23T10:10:35;98569.50;;;10.53;66.43
25232;BME280;13176;51.140;6.290;2024-02-23T10:13:05;98525.34;;;10.84;65.96
25232;BME280;13176;51.140;6.290;2024-02-23T10:15:31;98494.28;;;10.63;66.64
25232;BME280;13176;51.140;6.290;2024-02-23T10:17:58;98480.31;;;10.12;66.95
25232;BME280;13176;51.140;6.290;2024-02-23T10:20:25;98523.88;;;10.79;66.69
25232;BME280;13176;51.140;6.290;2024-02-23T10:22:52;98486.66;;;10.58;65.99
25232;BME280;13176;51.140;6.290;2024-02-23T10:25:20;98495.19;;;10.62;65.70
25232;BME280;13176;51.140;6.290;2024-02-23T10:27:47;98421.34;;;10.44;65.77
25232;BME280;13176;51.140;6.290;2024-02-23T10:30:14;98509.53;;;10.70;65.43
25232;BME280;13176;51.140;6.290;2024-02-23T10:32:45;98532.69;;;11.10;64.80
25232;BME280;13176;51.140;6.290;2024-02-23T10:35:16;98543.09;;;10.59;65.55
25232;BME280;13176;51.140;6.290;2024-02-23T10:37:43;98532.66;;;10.42;66.65
25232;BME280;13176;51.140;6.290;2024-02-23T10:40:14;98501.56;;;10.73;65.39
25232;BME280;13176;51.140;6.290;2024-02-23T10:42:43;98546.50;;;10.95;66.96
25232;BME280;13176;51.140;6.290;2024-02-23T10:45:19;98546.50;;;11.12;66.78
25232;BME280;13176;51.140;6.290;2024-02-23T10:47:47;98564.34;;;11.53;65.08
25232;BME280;13176;51.140;6.290;2024-02-23T10:50:14;98557.38;;;11.37;65.39
25232;BME280;13176;51.140;6.290;2024-02-23T10:52:42;98514.88;;;11.18;66.46
25232;BME280;13176;51.140;6.290;2024-02-23T10:55:09;98560.31;;;11.14;66.17
25232;BME280;13176;51.140;6.290;2024-02-23T10:57:36;98510.22;;;11.57;63.16
25232;BME280;13176;51.140;6.290;2024-02-23T11:00:04;98522.09;;;12.10;61.99
25232;BME280;13176;51.140;6.290;2024-02-23T11:02:40;98530.84;;;12.40;60.59
25232;BME280;13176;51.140;6.290;2024-02-23T11:05:10;98533.41;;;11.63;61.57
25232;BME280;13176;51.140;6.290;2024-02-23T11:07:39;98532.81;;;11.58;62.82
25232;BME280;13176;51.140;6.290;2024-02-23T11:10:06;98525.03;;;11.89;62.13
25232;BME280;13176;51.140;6.290;2024-02-23T11:12:33;98527.88;;;11.52;63.17
25232;BME280;13176;51.140;6.290;2024-02-23T11:15:00;98520.97;;;11.34;63.14
25232;BME280;13176;51.140;6.290;2024-02-23T11:17:29;98389.25;;;10.59;63.12
25232;BME280;13176;51.140;6.290;2024-02-23T11:19:57;98558.59;;;11.47;63.79
25232;BME280;13176;51.140;6.290;2024-02-23T11:22:24;98534.13;;;11.32;64.45
25232;BME280;13176;51.140;6.290;2024-02-23T11:25:00;98568.84;;;11.99;63.92
25232;BME280;13176;51.140;6.290;2024-02-23T11:27:30;98532.75;;;11.26;63.35
25232;BME280;13176;51.140;6.290;2024-02-23T11:30:07;98575.19;;;11.63;63.73
25232;BME280;13176;51.140;6.290;2024-02-23T11:35:06;98574.53;;;11.75;63.79
25232;BME280;13176;51.140;6.290;2024-02-23T11:37:32;98595.41;;;11.59;63.51
25232;BME280;13176;51.140;6.290;2024-02-23T11:40:01;98583.50;;;11.86;64.31
25232;BME280;13176;51.140;6.290;2024-02-23T11:42:29;98502.78;;;10.83;65.01
25232;BME280;13176;51.140;6.290;2024-02-23T11:44:57;98531.06;;;11.25;64.55
25232;BME280;13176;51.140;6.290;2024-02-23T11:47:25;98429.94;;;10.46;64.85
25232;BME280;13176;51.140;6.290;2024-02-23T11:49:52;98563.63;;;11.01;64.58
25232;BME280;13176;51.140;6.290;2024-02-23T11:52:18;98557.25;;;11.06;64.57
25232;BME280;13176;51.140;6.290;2024-02-23T11:54:45;98561.72;;;10.87;63.99
25232;BME280;13176;51.140;6.290;2024-02-23T11:57:12;98553.03;;;10.70;65.63
25232;BME280;13176;51.140;6.290;2024-02-23T11:59:40;98543.44;;;10.70;64.63
25232;BME280;13176;51.140;6.290;2024-02-23T12:02:06;98584.44;;;11.19;65.07
25232;BME280;13176;51.140;6.290;2024-02-23T12:04:33;98530.84;;;10.95;64.06
25232;BME280;13176;51.140;6.290;2024-02-23T12:07:00;98543.06;;;10.95;63.26
25232;BME280;13176;51.140;6.290;2024-02-23T12:09:27;98557.84;;;11.62;63.25
25232;BME280;13176;51.140;6.290;2024-02-23T12:11:53;98479.44;;;11.46;62.33
25232;BME280;13176;51.140;6.290;2024-02-23T12:14:20;98555.13;;;11.63;64.50
25232;BME280;13176;51.140;6.290;2024-02-23T12:16:47;98507.88;;;11.35;63.20
25232;BME280;13176;51.140;6.290;2024-02-23T12:19:14;98556.25;;;11.75;63.97
25232;BME280;13176;51.140;6.290;2024-02-23T12:21:45;98500.16;;;11.00;63.71
25232;BME280;13176;51.140;6.290;2024-02-23T12:24:12;98476.53;;;10.69;64.03
25232;BME280;13176;51.140;6.290;2024-02-23T12:26:38;98560.09;;;11.68;62.98
25232;BME280;13176;51.140;6.290;2024-02-23T12:29:05;98554.03;;;12.15;62.15
25232;BME280;13176;51.140;6.290;2024-02-23T12:31:32;98524.38;;;12.01;61.29
25232;BME280;13176;51.140;6.290;2024-02-23T12:33:59;98540.75;;;11.72;61.79
25232;BME280;13176;51.140;6.290;2024-02-23T12:36:25;98529.59;;;12.32;61.82
25232;BME280;13176;51.140;6.290;2024-02-23T12:38:52;98497.84;;;13.12;58.17
25232;BME280;13176;51.140;6.290;2024-02-23T12:41:18;98529.59;;;13.63;57.68
25232;BME280;13176;51.140;6.290;2024-02-23T12:43:45;98506.00;;;13.91;56.70
25232;BME280;13176;51.140;6.290;2024-02-23T12:46:14;98535.78;;;14.71;56.06
25232;BME280;13176;51.140;6.290;2024-02-23T12:48:40;98541.19;;;15.20;55.53
25232;BME280;13176;51.140;6.290;2024-02-23T12:51:08;98507.66;;;13.92;55.27
25232;BME280;13176;51.140;6.290;2024-02-23T12:53:41;98562.53;;;13.10;57.18
25232;BME280;13176;51.140;6.290;2024-02-23T12:56:13;98545.28;;;12.76;58.83
25232;BME280;13176;51.140;6.290;2024-02-23T12:58:42;98568.22;;;13.02;59.10
25232;BME280;13176;51.140;6.290;2024-02-23T13:01:09;98588.38;;;13.16;57.64
25232;BME280;13176;51.140;6.290;2024-02-23T13:03:38;98581.88;;;12.32;57.59
25232;BME280;13176;51.140;6.290;2024-02-23T13:06:05;98548.81;;;12.31;57.28
25232;BME280;13176;51.140;6.290;2024-02-23T13:08:32;98563.75;;;12.89;58.13
25232;BME280;13176;51.140;6.290;2024-02-23T13:10:59;98532.41;;;12.73;57.58